KGWW

Wayne Executive Jetport Airport

Goldsboro, North Carolina, USA
METAR KGWW 181300Z AUTO 00000KT 10SM CLR 02/01 A3013 RMK AO2 T00160011
Observed Flight Rules
Dec-18 @ 13:00 UTC (21 minutes ago) Visual Flight Rules
Visibility Clouds
10 miles
  • Clear skies
Temperatures Readings
Current 2°C / 36°F
Dewpoint 1°C / 34°F
Humidity 93%
Altimeter 30.13" Hg
Pressure 1020 hPa
Elevation 41
METAR KGWW 181300Z AUTO 00000KT 10SM CLR 02/01 A3013 RMK AO2 T00160011
Observed Flight Rules
Dec-18 @ 13:00 UTC
(21 minutes ago)
VFR
Clouds
  • Clear skies
Temperature Dewpoint
2°C / 36°F 1°C / 34°F
Humidity Altimeter Pressure
93% 30.13" Hg 1020 hPa